createdAt,value
2023-05-18T00:00:55.596Z,102819.03
2023-05-18T00:03:28.560Z,102815.16
2023-05-18T00:06:04.622Z,102810.19
2023-05-18T00:08:38.595Z,102805.69
2023-05-18T00:11:12.798Z,102805.22
2023-05-18T00:13:45.720Z,102809.78
2023-05-18T00:16:18.555Z,102818.00
2023-05-18T00:18:54.685Z,102812.06
2023-05-18T00:21:30.676Z,102806.19
2023-05-18T00:24:03.547Z,102810.19
2023-05-18T00:26:38.204Z,102811.06
2023-05-18T00:29:11.975Z,102813.56
2023-05-18T00:31:47.115Z,102815.69
2023-05-18T00:34:19.977Z,102813.13
2023-05-18T00:36:52.711Z,102807.78
2023-05-18T00:39:25.673Z,102814.88
2023-05-18T00:42:00.149Z,102815.09
2023-05-18T00:44:32.987Z,102814.44
2023-05-18T00:47:05.767Z,102822.19
2023-05-18T00:49:39.669Z,102819.44
2023-05-18T00:52:12.631Z,102817.97
2023-05-18T00:54:46.074Z,102813.94
2023-05-18T00:57:20.404Z,102811.41
2023-05-18T00:59:53.311Z,102812.06
2023-05-18T01:02:30.102Z,102811.53
2023-05-18T01:05:03.559Z,102815.81
2023-05-18T01:07:38.767Z,102814.88
2023-05-18T01:10:13.184Z,102824.38
2023-05-18T01:12:52.028Z,102823.28
2023-05-18T01:15:32.996Z,102830.56
2023-05-18T01:18:15.288Z,102822.78
2023-05-18T01:20:50.729Z,102816.63
2023-05-18T01:24:03.473Z,102818.25
2023-05-18T01:26:41.923Z,102813.88
2023-05-18T01:29:16.476Z,102815.38
2023-05-18T01:31:49.359Z,102814.25
2023-05-18T01:34:22.212Z,102817.50
2023-05-18T01:36:55.275Z,102818.94
2023-05-18T01:39:28.223Z,102822.22
2023-05-18T01:42:11.415Z,102822.91
2023-05-18T01:44:48.893Z,102827.25
2023-05-18T01:47:21.678Z,102831.47
2023-05-18T01:50:01.239Z,102828.06
2023-05-18T01:52:43.991Z,102823.41
2023-05-18T01:55:20.531Z,102829.72
2023-05-18T01:57:55.751Z,102833.31
2023-05-18T02:00:28.721Z,102823.94
2023-05-18T02:03:01.582Z,102826.38
2023-05-18T02:05:34.686Z,102830.75
2023-05-18T02:08:08.122Z,102825.41
2023-05-18T02:10:41.187Z,102829.78
2023-05-18T02:13:15.507Z,102822.50
2023-05-18T02:15:48.895Z,102822.50
2023-05-18T02:18:22.566Z,102823.81
2023-05-18T02:26:50.471Z,102819.13
2023-05-18T02:29:27.238Z,102819.94
2023-05-18T02:32:00.854Z,102820.59
2023-05-18T02:34:35.746Z,102814.00
2023-05-18T02:37:08.677Z,102817.75
2023-05-18T02:39:41.381Z,102815.16
2023-05-18T02:42:14.290Z,102813.03
2023-05-18T02:44:48.502Z,102814.69
2023-05-18T02:47:22.879Z,102807.09
2023-05-18T02:49:56.460Z,102808.88
2023-05-18T02:52:29.375Z,102805.50
2023-05-18T02:55:02.259Z,102812.63
2023-05-18T02:57:57.449Z,102805.03
2023-05-18T03:00:46.720Z,102812.94
2023-05-18T03:06:23.351Z,102803.94
2023-05-18T03:08:56.623Z,102804.06
2023-05-18T03:11:37.596Z,102803.94
2023-05-18T03:14:10.672Z,102803.28
2023-05-18T03:16:45.280Z,102801.19
2023-05-18T03:19:20.949Z,102809.44
2023-05-18T03:21:53.823Z,102810.72
2023-05-18T03:24:30.428Z,102810.09
2023-05-18T03:27:05.470Z,102813.16
2023-05-18T03:29:38.327Z,102804.28
2023-05-18T03:32:12.679Z,102822.56
2023-05-18T03:34:47.631Z,102820.28
2023-05-18T03:37:21.151Z,102816.09
2023-05-18T03:39:54.143Z,102812.88
2023-05-18T03:42:27.062Z,102813.34
2023-05-18T03:45:00.188Z,102813.19
2023-05-18T03:47:34.506Z,102806.41
2023-05-18T03:50:10.328Z,102805.44
2023-05-18T03:52:44.436Z,102812.88
2023-05-18T03:55:17.393Z,102810.28
2023-05-18T03:57:50.139Z,102809.34
2023-05-18T04:00:25.243Z,102805.63
2023-05-18T04:02:59.467Z,102808.03
2023-05-18T04:05:32.911Z,102807.72
2023-05-18T04:08:08.866Z,102805.78
2023-05-18T04:10:43.200Z,102819.00
2023-05-18T04:13:16.547Z,102813.53
2023-05-18T04:15:49.561Z,102820.31
2023-05-18T04:18:23.931Z,102824.84
2023-05-18T04:20:57.217Z,102827.09
2023-05-18T04:23:33.484Z,102823.06
2023-05-18T04:26:07.159Z,102817.41
2023-05-18T04:28:39.805Z,102822.41
2023-05-18T04:31:14.503Z,102825.00
2023-05-18T04:33:51.377Z,102821.28
2023-05-18T04:36:25.814Z,102818.38
2023-05-18T04:39:01.856Z,102826.59
2023-05-18T04:41:35.294Z,102832.75
2023-05-18T04:44:09.563Z,102840.66
2023-05-18T04:46:42.437Z,102834.50
2023-05-18T04:49:17.065Z,102839.88
2023-05-18T04:51:55.625Z,102842.44
2023-05-18T04:54:30.915Z,102849.69
2023-05-18T04:57:04.177Z,102846.78
2023-05-18T04:59:37.321Z,102847.78
2023-05-18T05:02:11.196Z,102850.69
2023-05-18T05:04:45.912Z,102854.38
2023-05-18T05:07:18.737Z,102850.00
2023-05-18T05:09:55.210Z,102853.25
2023-05-18T05:12:28.153Z,102853.41
2023-05-18T05:15:00.998Z,102848.56
2023-05-18T05:17:33.820Z,102849.38
2023-05-18T05:20:09.467Z,102856.66
2023-05-18T05:22:42.919Z,102851.31
2023-05-18T05:25:18.101Z,102853.56
2023-05-18T05:27:50.802Z,102851.47
2023-05-18T05:30:26.244Z,102856.16
2023-05-18T05:32:59.888Z,102856.16
2023-05-18T05:35:35.756Z,102850.00
2023-05-18T05:38:09.022Z,102843.91
2023-05-18T05:40:41.969Z,102849.22
2023-05-18T05:43:15.085Z,102846.66
2023-05-18T05:45:48.876Z,102856.31
2023-05-18T05:48:22.827Z,102851.47
2023-05-18T05:50:57.014Z,102852.44
2023-05-18T05:53:30.130Z,102854.88
2023-05-18T05:56:02.870Z,102862.44
2023-05-18T05:58:37.412Z,102868.59
2023-05-18T06:01:10.301Z,102864.06
2023-05-18T06:03:45.227Z,102871.16
2023-05-18T06:06:20.233Z,102868.75
2023-05-18T06:08:53.049Z,102873.44
2023-05-18T06:11:26.693Z,102876.03
2023-05-18T06:14:00.207Z,102873.28
2023-05-18T06:16:33.373Z,102878.44
2023-05-18T06:19:08.206Z,102876.03
2023-05-18T06:21:42.588Z,102875.19
2023-05-18T06:24:16.014Z,102881.63
2023-05-18T06:27:16.901Z,102887.13
2023-05-18T06:29:57.372Z,102890.03
2023-05-18T06:32:44.082Z,102890.69
2023-05-18T06:35:17.197Z,102887.94
2023-05-18T06:37:51.725Z,102900.03
2023-05-18T06:40:24.767Z,102893.38
2023-05-18T06:42:57.530Z,102899.34
2023-05-18T06:45:35.231Z,102893.44
2023-05-18T06:48:43.766Z,102895.91
2023-05-18T06:51:23.561Z,102901.94
2023-05-18T06:54:05.344Z,102896.16
2023-05-18T06:56:38.516Z,102891.78
2023-05-18T06:59:15.003Z,102898.34
2023-05-18T07:02:04.831Z,102895.88
2023-05-18T07:04:41.790Z,102894.50
2023-05-18T07:07:22.318Z,102890.06
2023-05-18T07:10:07.383Z,102894.50
2023-05-18T07:12:40.249Z,102898.84
2023-05-18T07:15:21.011Z,102897.59
2023-05-18T07:17:54.096Z,102901.63
2023-05-18T07:20:27.278Z,102899.16
2023-05-18T07:23:04.207Z,102901.28
2023-05-18T07:25:43.186Z,102903.16
2023-05-18T07:28:25.304Z,102900.41
2023-05-18T07:31:00.016Z,102906.50
2023-05-18T07:33:33.062Z,102909.41
2023-05-18T07:36:11.394Z,102908.22
2023-05-18T07:38:44.264Z,102914.88
2023-05-18T07:41:18.876Z,102919.91
2023-05-18T07:43:52.817Z,102912.31
2023-05-18T07:46:26.066Z,102915.28
2023-05-18T07:48:59.446Z,102912.91
2023-05-18T07:51:32.740Z,102910.63
2023-05-18T07:54:06.259Z,102908.84
2023-05-18T07:56:40.820Z,102908.69
2023-05-18T07:59:16.127Z,102907.66
2023-05-18T08:01:50.280Z,102915.25
2023-05-18T08:04:23.184Z,102907.06
2023-05-18T08:07:00.045Z,102915.72
2023-05-18T08:09:33.112Z,102909.97
2023-05-18T08:12:08.092Z,102909.16
2023-05-18T08:14:41.057Z,102905.19
2023-05-18T08:17:14.086Z,102910.34
2023-05-18T08:19:47.530Z,102908.66
2023-05-18T08:22:20.869Z,102906.16
2023-05-18T08:24:54.806Z,102907.03
2023-05-18T08:27:29.490Z,102904.06
2023-05-18T08:30:02.520Z,102908.91
2023-05-18T08:32:39.589Z,102912.41
2023-05-18T08:35:12.908Z,102911.41
2023-05-18T08:37:47.017Z,102908.97
2023-05-18T08:40:20.097Z,102900.44
2023-05-18T08:43:04.593Z,102905.78
2023-05-18T08:45:42.528Z,102911.00
2023-05-18T08:48:17.634Z,102909.63
2023-05-18T08:50:54.094Z,102912.84
2023-05-18T08:53:27.312Z,102902.25
2023-05-18T08:56:01.075Z,102911.75
2023-05-18T08:58:37.702Z,102908.72
2023-05-18T09:01:11.433Z,102910.84
2023-05-18T09:03:45.596Z,102907.44
2023-05-18T09:06:19.670Z,102909.00
2023-05-18T09:08:54.244Z,102893.38
2023-05-18T09:11:28.808Z,102899.16
2023-05-18T09:14:05.916Z,102890.72
2023-05-18T09:16:39.097Z,102892.06
2023-05-18T09:19:21.332Z,102893.72
2023-05-18T09:21:54.413Z,102888.22
2023-05-18T09:24:28.024Z,102885.84
2023-05-18T09:27:01.175Z,102877.50
2023-05-18T09:29:35.558Z,102876.56
2023-05-18T09:32:11.694Z,102876.47
2023-05-18T09:34:45.556Z,102882.13
2023-05-18T09:37:18.702Z,102866.69
2023-05-18T09:40:02.433Z,102871.06
2023-05-18T09:42:39.173Z,102870.28
2023-05-18T09:45:19.369Z,102880.81
2023-05-18T09:47:52.691Z,102869.09
2023-05-18T09:50:26.563Z,102865.78
2023-05-18T09:53:01.086Z,102873.72
2023-05-18T09:55:34.261Z,102879.69
2023-05-18T09:58:09.026Z,102883.31
2023-05-18T10:00:45.202Z,102885.78
2023-05-18T10:03:19.302Z,102877.84
2023-05-18T10:05:52.693Z,102889.00
2023-05-18T10:08:25.549Z,102882.41
2023-05-18T10:10:58.554Z,102883.22
2023-05-18T10:13:32.558Z,102880.88
2023-05-18T10:16:09.099Z,102890.31
2023-05-18T10:18:42.699Z,102880.66
2023-05-18T10:21:17.924Z,102877.59
2023-05-18T10:23:52.121Z,102870.97
2023-05-18T10:26:29.214Z,102871.28
2023-05-18T10:29:02.658Z,102874.34
2023-05-18T10:31:39.833Z,102868.22
2023-05-18T10:34:13.023Z,102864.81
2023-05-18T10:36:45.953Z,102868.34
2023-05-18T10:39:19.536Z,102863.56
2023-05-18T10:41:52.605Z,102869.91
2023-05-18T10:44:26.079Z,102859.97
2023-05-18T10:47:00.491Z,102855.13
2023-05-18T10:49:36.352Z,102861.03
2023-05-18T10:52:12.909Z,102857.06
2023-05-18T10:54:47.780Z,102850.22
2023-05-18T10:57:21.920Z,102855.13
2023-05-18T10:59:54.859Z,102848.75
2023-05-18T11:02:29.563Z,102846.03
2023-05-18T11:05:06.641Z,102844.00
2023-05-18T11:07:41.722Z,102852.69
2023-05-18T11:10:15.611Z,102840.81
2023-05-18T11:12:49.221Z,102837.56
2023-05-18T11:15:24.349Z,102841.56
2023-05-18T11:18:21.700Z,102835.59
2023-05-18T11:20:54.742Z,102846.41
2023-05-18T11:23:27.809Z,102838.78
2023-05-18T11:26:04.894Z,102842.72
2023-05-18T11:28:44.309Z,102834.41
2023-05-18T11:31:19.905Z,102828.81
2023-05-18T11:33:54.450Z,102832.53
2023-05-18T11:36:28.924Z,102823.50
2023-05-18T11:39:11.415Z,102825.81
2023-05-18T11:41:47.004Z,102825.09
2023-05-18T11:44:24.484Z,102815.88
2023-05-18T11:47:02.815Z,102816.66
2023-05-18T11:49:44.545Z,102803.47
2023-05-18T11:52:20.724Z,102798.03
2023-05-18T11:54:58.656Z,102809.09
2023-05-18T11:57:42.744Z,102809.56
2023-05-18T12:00:17.480Z,102798.34
2023-05-18T12:02:53.069Z,102800.34
2023-05-18T12:05:36.817Z,102800.44
2023-05-18T12:08:10.408Z,102797.09
2023-05-18T12:10:43.528Z,102787.34
2023-05-18T12:13:21.243Z,102796.34
2023-05-18T12:15:58.715Z,102792.13
2023-05-18T12:18:35.166Z,102791.72
2023-05-18T12:21:11.690Z,102776.31
2023-05-18T12:23:45.402Z,102779.91
2023-05-18T12:26:20.534Z,102787.38
2023-05-18T12:28:54.818Z,102785.50
2023-05-18T12:31:37.176Z,102787.56
2023-05-18T12:34:22.153Z,102784.38
2023-05-18T12:37:01.405Z,102788.72
2023-05-18T12:39:44.743Z,102780.94
2023-05-18T12:42:20.530Z,102780.66
2023-05-18T12:44:59.239Z,102779.66
2023-05-18T12:47:44.714Z,102789.59
2023-05-18T12:50:23.995Z,102776.25
2023-05-18T12:53:04.476Z,102778.19
2023-05-18T12:55:41.836Z,102784.41
2023-05-18T12:58:19.502Z,102778.97
2023-05-18T13:00:55.301Z,102777.41
2023-05-18T13:03:35.172Z,102772.13
2023-05-18T13:09:00.184Z,102776.03
2023-05-18T13:11:39.743Z,102769.47
2023-05-18T13:14:24.547Z,102765.50
2023-05-18T13:16:57.854Z,102770.34
2023-05-18T13:19:34.561Z,102757.81
2023-05-18T13:22:08.401Z,102766.75
2023-05-18T13:24:42.877Z,102755.34
2023-05-18T13:27:15.904Z,102764.31
2023-05-18T13:29:51.313Z,102763.88
2023-05-18T13:32:24.228Z,102769.09
2023-05-18T13:34:57.227Z,102773.34
2023-05-18T13:37:30.575Z,102760.75
2023-05-18T13:40:07.603Z,102750.41
2023-05-18T13:42:43.914Z,102744.66
2023-05-18T13:45:16.994Z,102742.63
2023-05-18T13:47:51.781Z,102734.22
2023-05-18T13:50:26.586Z,102739.66
2023-05-18T13:53:01.210Z,102740.44
2023-05-18T13:55:35.848Z,102739.19
2023-05-18T13:58:08.959Z,102738.13
2023-05-18T14:00:41.892Z,102737.66
2023-05-18T14:03:17.702Z,102734.69
2023-05-18T14:05:51.998Z,102724.88
2023-05-18T14:08:24.898Z,102723.91
2023-05-18T14:10:58.870Z,102730.50
2023-05-18T14:13:31.707Z,102733.53
2023-05-18T14:16:04.736Z,102726.69
2023-05-18T14:18:37.980Z,102728.84
2023-05-18T14:21:11.098Z,102719.13
2023-05-18T14:23:44.254Z,102709.75
2023-05-18T14:26:18.691Z,102718.28
2023-05-18T14:28:54.977Z,102711.28
2023-05-18T14:31:30.554Z,102711.66
2023-05-18T14:34:03.461Z,102702.59
2023-05-18T14:36:38.785Z,102714.66
2023-05-18T14:39:11.742Z,102709.28
2023-05-18T14:41:46.169Z,102703.25
2023-05-18T14:44:19.109Z,102711.38
2023-05-18T14:46:54.460Z,102711.69
2023-05-18T14:49:35.781Z,102694.38
2023-05-18T14:52:09.193Z,102690.88
2023-05-18T14:54:42.519Z,102693.19
2023-05-18T14:57:17.250Z,102694.03
2023-05-18T14:59:52.521Z,102687.78
2023-05-18T15:02:25.483Z,102697.78
2023-05-18T15:04:58.591Z,102697.25
2023-05-18T15:07:32.452Z,102687.78
2023-05-18T15:10:06.364Z,102691.16
2023-05-18T15:12:40.790Z,102683.75
2023-05-18T15:15:13.963Z,102687.66
2023-05-18T15:17:46.947Z,102684.00
2023-05-18T15:20:20.031Z,102675.22
2023-05-18T15:22:53.250Z,102692.13
2023-05-18T15:25:26.370Z,102688.28
2023-05-18T15:28:00.588Z,102686.28
2023-05-18T15:30:36.517Z,102678.53
2023-05-18T15:33:09.728Z,102685.00
2023-05-18T15:35:45.379Z,102685.34
2023-05-18T15:38:20.158Z,102680.47
2023-05-18T15:40:53.540Z,102679.22
2023-05-18T15:43:29.774Z,102684.59
2023-05-18T15:46:02.889Z,102681.97
2023-05-18T15:48:37.756Z,102676.19
2023-05-18T15:51:11.255Z,102668.25
2023-05-18T15:53:44.469Z,102677.88
2023-05-18T15:56:18.358Z,102674.53
2023-05-18T15:58:52.922Z,102668.16
2023-05-18T16:01:26.003Z,102664.78
2023-05-18T16:03:59.865Z,102660.06
2023-05-18T16:06:38.712Z,102659.84
2023-05-18T16:09:12.425Z,102661.88
2023-05-18T16:11:45.400Z,102653.78
2023-05-18T16:14:20.432Z,102651.50
2023-05-18T16:17:09.429Z,102645.19
2023-05-18T16:19:42.631Z,102642.78
2023-05-18T16:22:17.812Z,102644.06
2023-05-18T16:24:53.192Z,102637.16
2023-05-18T16:27:26.346Z,102638.03
2023-05-18T16:30:04.501Z,102638.03
2023-05-18T16:32:37.822Z,102638.47
2023-05-18T16:35:11.174Z,102636.88
2023-05-18T16:37:48.596Z,102628.94
2023-05-18T16:40:27.009Z,102634.88
2023-05-18T16:43:00.146Z,102643.22
2023-05-18T16:45:35.241Z,102638.50
2023-05-18T16:48:08.780Z,102633.53
2023-05-18T16:50:47.514Z,102630.00
2023-05-18T16:53:20.718Z,102630.03
2023-05-18T16:55:56.176Z,102627.38
2023-05-18T16:58:29.274Z,102634.78
2023-05-18T17:01:09.817Z,102636.38
2023-05-18T17:03:56.154Z,102634.59
2023-05-18T17:06:30.026Z,102628.22
2023-05-18T17:09:06.138Z,102636.66
2023-05-18T17:11:39.658Z,102628.22
2023-05-18T17:14:12.874Z,102622.91
2023-05-18T17:16:53.003Z,102631.44
2023-05-18T17:19:26.224Z,102625.88
2023-05-18T17:22:01.327Z,102631.84
2023-05-18T17:24:34.463Z,102631.03
2023-05-18T17:27:07.805Z,102617.47
2023-05-18T17:29:44.179Z,102621.47
2023-05-18T17:32:20.392Z,102623.50
2023-05-18T17:34:56.328Z,102621.56
2023-05-18T17:37:29.543Z,102621.88
2023-05-18T17:40:03.150Z,102630.59
2023-05-18T17:42:36.705Z,102630.31
2023-05-18T17:45:11.471Z,102622.38
2023-05-18T17:47:46.395Z,102626.75
2023-05-18T17:50:19.350Z,102619.94
2023-05-18T17:52:52.064Z,102626.31
2023-05-18T17:55:25.217Z,102620.34
2023-05-18T17:57:59.661Z,102622.72
2023-05-18T18:00:32.962Z,102623.16
2023-05-18T18:03:07.543Z,102622.34
2023-05-18T18:05:40.628Z,102621.56
2023-05-18T18:08:14.872Z,102624.72
2023-05-18T18:10:47.764Z,102631.91
2023-05-18T18:13:20.472Z,102623.91
2023-05-18T18:15:53.361Z,102625.50
2023-05-18T18:18:30.054Z,102624.69
2023-05-18T18:21:03.056Z,102626.69
2023-05-18T18:23:36.716Z,102627.47
2023-05-18T18:26:09.543Z,102627.06
2023-05-18T18:28:42.821Z,102628.66
2023-05-18T18:31:16.189Z,102627.84
2023-05-18T18:33:51.389Z,102628.63
2023-05-18T18:36:26.295Z,102634.56
2023-05-18T18:38:59.658Z,102631.78
2023-05-18T18:41:33.266Z,102645.69
2023-05-18T18:44:09.829Z,102630.53
2023-05-18T18:46:42.901Z,102645.63
2023-05-18T18:49:17.054Z,102639.63
2023-05-18T18:51:50.853Z,102644.00
2023-05-18T18:54:23.789Z,102645.13
2023-05-18T18:56:56.639Z,102642.75
2023-05-18T18:59:29.676Z,102645.47
2023-05-18T19:02:02.760Z,102635.91
2023-05-18T19:04:37.468Z,102642.25
2023-05-18T19:07:10.399Z,102641.81
2023-05-18T19:09:46.582Z,102635.44
2023-05-18T19:12:20.150Z,102647.31
2023-05-18T19:14:53.314Z,102648.84
2023-05-18T19:17:26.779Z,102645.63
2023-05-18T19:20:02.741Z,102641.63
2023-05-18T19:22:37.541Z,102639.16
2023-05-18T19:25:10.896Z,102644.28
2023-05-18T19:27:43.779Z,102643.03
2023-05-18T19:30:21.040Z,102654.16
2023-05-18T19:32:54.673Z,102654.16
2023-05-18T19:35:29.081Z,102657.22
2023-05-18T19:38:02.570Z,102656.78
2023-05-18T19:40:35.749Z,102659.53
2023-05-18T19:43:08.767Z,102655.50
2023-05-18T19:45:41.676Z,102657.81
2023-05-18T19:48:14.474Z,102665.69
2023-05-18T19:50:49.767Z,102668.03
2023-05-18T19:53:23.089Z,102674.31
2023-05-18T19:55:55.984Z,102670.66
2023-05-18T19:58:28.655Z,102672.59
2023-05-18T20:01:01.472Z,102668.56
2023-05-18T20:03:34.566Z,102671.69
2023-05-18T20:06:08.823Z,102670.34
2023-05-18T20:08:43.130Z,102676.66
2023-05-18T20:11:16.107Z,102677.00
2023-05-18T20:13:48.690Z,102676.16
2023-05-18T20:16:21.568Z,102668.63
2023-05-18T20:18:54.492Z,102675.28
2023-05-18T20:21:28.580Z,102677.56
2023-05-18T20:24:01.397Z,102672.44
2023-05-18T20:26:34.183Z,102671.16
2023-05-18T20:29:07.627Z,102666.28
2023-05-18T20:31:40.699Z,102667.84
2023-05-18T20:34:13.787Z,102672.50
2023-05-18T20:36:47.981Z,102672.81
2023-05-18T20:39:20.919Z,102678.66
2023-05-18T20:41:53.954Z,102675.38
2023-05-18T20:44:28.994Z,102682.41
2023-05-18T20:47:02.711Z,102686.31
2023-05-18T20:49:35.500Z,102686.25
2023-05-18T20:52:09.783Z,102686.22
2023-05-18T20:54:42.703Z,102685.31
2023-05-18T20:57:15.554Z,102697.06
2023-05-18T20:59:48.192Z,102689.94
2023-05-18T21:02:21.349Z,102693.09
2023-05-18T21:04:57.781Z,102686.19
2023-05-18T21:07:33.265Z,102688.09
2023-05-18T21:10:07.594Z,102688.09
2023-05-18T21:12:40.859Z,102692.06
2023-05-18T21:15:13.926Z,102695.06
2023-05-18T21:17:48.156Z,102694.31
2023-05-18T21:20:21.044Z,102691.84
2023-05-18T21:22:55.249Z,102695.53
2023-05-18T21:25:28.310Z,102692.72
2023-05-18T21:28:01.253Z,102698.25
2023-05-18T21:30:34.064Z,102700.22
2023-05-18T21:33:07.959Z,102703.97
2023-05-18T21:35:40.917Z,102701.06
2023-05-18T21:38:15.904Z,102701.41
2023-05-18T21:40:48.724Z,102705.00
2023-05-18T21:43:21.771Z,102699.31
2023-05-18T21:45:54.537Z,102702.03
2023-05-18T21:48:27.462Z,102701.63
2023-05-18T21:51:00.515Z,102700.91
2023-05-18T21:53:34.764Z,102698.91
2023-05-18T21:56:07.887Z,102704.53
2023-05-18T21:58:40.728Z,102700.47
2023-05-18T22:01:13.542Z,102702.06
2023-05-18T22:03:46.622Z,102709.03
2023-05-18T22:06:22.128Z,102708.88
2023-05-18T22:08:56.355Z,102718.34
2023-05-18T22:11:29.330Z,102720.53
2023-05-18T22:14:02.186Z,102720.53
2023-05-18T22:16:35.067Z,102711.06
2023-05-18T22:19:08.354Z,102715.69
2023-05-18T22:21:41.842Z,102719.03
2023-05-18T22:24:16.850Z,102714.50
2023-05-18T22:26:49.889Z,102708.81
2023-05-18T22:29:22.910Z,102710.03
2023-05-18T22:31:55.855Z,102700.22
2023-05-18T22:34:28.500Z,102713.53
2023-05-18T22:37:01.374Z,102702.81
2023-05-18T22:39:35.642Z,102707.34
2023-05-18T22:42:08.494Z,102705.06
2023-05-18T22:44:41.249Z,102700.34
2023-05-18T22:47:19.534Z,102708.00
2023-05-18T22:49:52.694Z,102699.72
2023-05-18T22:52:26.577Z,102707.13
2023-05-18T22:55:01.097Z,102705.16
2023-05-18T22:57:33.846Z,102706.88
2023-05-18T23:00:09.184Z,102708.16
2023-05-18T23:02:43.140Z,102708.34
2023-05-18T23:05:17.206Z,102713.44
2023-05-18T23:07:52.175Z,102708.59
2023-05-18T23:10:27.278Z,102718.78
2023-05-18T23:13:00.376Z,102717.19
2023-05-18T23:15:33.225Z,102723.88
2023-05-18T23:18:09.438Z,102715.41
2023-05-18T23:20:42.730Z,102710.06
2023-05-18T23:23:15.479Z,102710.06
2023-05-18T23:25:50.955Z,102707.09
2023-05-18T23:28:24.533Z,102712.97
2023-05-18T23:30:57.298Z,102714.50
2023-05-18T23:33:32.121Z,102701.41
2023-05-18T23:36:06.469Z,102709.84
2023-05-18T23:38:41.758Z,102697.53
2023-05-18T23:41:17.174Z,102703.59
2023-05-18T23:43:50.873Z,102698.75
2023-05-18T23:46:24.780Z,102695.56
2023-05-18T23:48:59.619Z,102688.44
2023-05-18T23:51:36.335Z,102688.00
2023-05-18T23:54:09.816Z,102682.91
2023-05-18T23:56:44.454Z,102682.81
2023-05-18T23:59:17.799Z,102685.22
